createdAt,value
2019-02-21T00:02:22.677Z,15.59
2019-02-21T00:04:48.988Z,15.58
2019-02-21T00:07:15.288Z,15.58
2019-02-21T00:09:41.607Z,15.56
2019-02-21T00:12:07.908Z,15.55
2019-02-21T00:14:34.211Z,15.52
2019-02-21T00:17:00.516Z,15.51
2019-02-21T00:19:26.824Z,15.48
2019-02-21T00:21:53.133Z,15.45
2019-02-21T00:24:19.466Z,15.43
2019-02-21T00:26:45.773Z,15.42
2019-02-21T00:29:12.075Z,15.39
2019-02-21T00:31:40.131Z,15.36
2019-02-21T00:34:05.741Z,15.34
2019-02-21T00:36:32.047Z,15.33
2019-02-21T00:38:58.427Z,15.30
2019-02-21T00:41:24.736Z,15.25
2019-02-21T00:43:51.049Z,15.27
2019-02-21T00:46:17.377Z,15.24
2019-02-21T00:48:43.682Z,15.15
2019-02-21T00:51:09.988Z,15.15
2019-02-21T00:53:36.292Z,15.13
2019-02-21T00:56:02.608Z,15.10
2019-02-21T00:58:28.914Z,15.09
2019-02-21T01:00:55.227Z,15.07
2019-02-21T01:03:21.539Z,15.06
2019-02-21T01:05:47.845Z,15.04
2019-02-21T01:08:14.154Z,15.00
2019-02-21T01:10:40.467Z,14.98
2019-02-21T01:13:06.812Z,14.97
2019-02-21T01:15:33.085Z,14.95
2019-02-21T01:17:59.397Z,14.93
2019-02-21T01:20:25.704Z,14.91
2019-02-21T01:22:52.013Z,14.87
2019-02-21T01:25:18.316Z,14.87
2019-02-21T01:27:44.628Z,14.84
2019-02-21T01:30:10.944Z,14.82
2019-02-21T01:32:37.260Z,14.83
2019-02-21T01:35:03.566Z,14.82
2019-02-21T01:37:29.878Z,14.79
2019-02-21T01:39:56.185Z,14.75
2019-02-21T01:42:22.492Z,14.76
2019-02-21T01:44:48.801Z,14.75
2019-02-21T01:47:15.108Z,14.73
2019-02-21T01:49:41.428Z,14.71
2019-02-21T01:52:07.739Z,14.71
2019-02-21T01:54:34.043Z,14.69
2019-02-21T01:57:00.352Z,14.68
2019-02-21T01:59:26.660Z,14.66
2019-02-21T02:01:52.969Z,14.61
2019-02-21T02:04:19.277Z,14.62
2019-02-21T02:06:45.587Z,14.62
2019-02-21T02:09:11.922Z,14.62
2019-02-21T02:11:38.220Z,14.60
2019-02-21T02:14:04.531Z,14.60
2019-02-21T02:16:30.841Z,14.59
2019-02-21T02:18:57.143Z,14.57
2019-02-21T02:21:23.455Z,14.56
2019-02-21T02:23:49.763Z,14.56
2019-02-21T02:26:16.097Z,14.54
2019-02-21T02:28:42.408Z,14.53
2019-02-21T02:31:21.541Z,14.50
2019-02-21T02:33:35.029Z,14.47
2019-02-21T02:36:01.335Z,14.47
2019-02-21T02:38:27.645Z,14.45
2019-02-21T02:40:53.960Z,14.44
2019-02-21T02:43:20.284Z,14.43
2019-02-21T02:45:46.585Z,14.41
2019-02-21T02:48:12.909Z,14.37
2019-02-21T02:50:39.203Z,14.39
2019-02-21T02:53:05.512Z,14.36
2019-02-21T02:55:31.826Z,14.34
2019-02-21T02:57:58.135Z,14.33
2019-02-21T03:00:24.446Z,14.31
2019-02-21T03:02:50.778Z,14.27
2019-02-21T03:05:17.129Z,14.24
2019-02-21T03:07:43.389Z,14.26
2019-02-21T03:10:09.699Z,14.25
2019-02-21T03:12:36.009Z,14.23
2019-02-21T03:15:02.340Z,14.18
2019-02-21T03:17:28.626Z,14.17
2019-02-21T03:19:54.937Z,14.15
2019-02-21T03:22:21.246Z,14.14
2019-02-21T03:24:47.561Z,14.12
2019-02-21T03:27:13.868Z,14.11
2019-02-21T03:29:40.198Z,14.09
2019-02-21T03:32:06.535Z,14.08
2019-02-21T03:34:32.840Z,14.06
2019-02-21T03:36:59.145Z,14.06
2019-02-21T03:39:25.484Z,14.03
2019-02-21T03:41:51.761Z,14.01
2019-02-21T03:44:18.072Z,13.99
2019-02-21T03:46:44.380Z,13.97
2019-02-21T03:49:10.687Z,13.96
2019-02-21T03:51:36.991Z,13.92
2019-02-21T03:54:03.315Z,13.89
2019-02-21T03:56:29.620Z,13.87
2019-02-21T03:58:55.934Z,13.86
2019-02-21T04:01:22.248Z,13.85
2019-02-21T04:03:48.583Z,13.83
2019-02-21T04:06:14.897Z,13.81
2019-02-21T04:08:41.214Z,13.78
2019-02-21T04:11:07.525Z,13.77
2019-02-21T04:13:33.827Z,13.74
2019-02-21T04:16:00.139Z,13.73
2019-02-21T04:18:26.446Z,13.69
2019-02-21T04:20:52.753Z,13.69
2019-02-21T04:23:19.056Z,13.68
2019-02-21T04:25:45.365Z,13.66
2019-02-21T04:28:11.665Z,13.64
2019-02-21T04:30:37.980Z,13.62
2019-02-21T04:33:04.285Z,13.61
2019-02-21T04:35:30.592Z,13.59
2019-02-21T04:37:56.940Z,13.57
2019-02-21T04:40:23.246Z,13.56
2019-02-21T04:42:49.554Z,13.54
2019-02-21T04:45:15.856Z,13.52
2019-02-21T04:47:42.165Z,13.50
2019-02-21T04:50:08.472Z,13.48
2019-02-21T04:52:34.793Z,13.46
2019-02-21T04:55:01.112Z,13.46
2019-02-21T04:57:27.430Z,13.45
2019-02-21T04:59:53.735Z,13.45
2019-02-21T05:02:28.498Z,13.46
2019-02-21T05:04:46.355Z,13.44
2019-02-21T05:07:12.660Z,13.41
2019-02-21T05:09:38.972Z,13.38
2019-02-21T05:12:05.275Z,13.36
2019-02-21T05:14:31.587Z,13.36
2019-02-21T05:17:00.528Z,13.35
2019-02-21T05:19:24.209Z,13.35
2019-02-21T05:21:50.518Z,13.34
2019-02-21T05:24:16.825Z,13.33
2019-02-21T05:26:43.142Z,13.32
2019-02-21T05:29:09.455Z,13.31
2019-02-21T05:31:35.763Z,13.33
2019-02-21T05:34:02.072Z,13.32
2019-02-21T05:36:28.382Z,13.32
2019-02-21T05:38:54.713Z,13.30
2019-02-21T05:41:21.029Z,13.37
2019-02-21T05:43:47.339Z,13.39
2019-02-21T05:46:13.645Z,13.36
2019-02-21T05:48:40.290Z,13.41
2019-02-21T05:51:06.257Z,13.43
2019-02-21T05:53:32.565Z,13.48
2019-02-21T05:55:58.872Z,13.49
2019-02-21T05:58:25.187Z,13.58
2019-02-21T06:00:51.493Z,13.67
2019-02-21T06:03:17.812Z,13.76
2019-02-21T06:05:44.126Z,13.90
2019-02-21T06:08:10.435Z,14.00
2019-02-21T06:10:36.747Z,14.14
2019-02-21T06:13:03.062Z,14.27
2019-02-21T06:15:29.367Z,14.43
2019-02-21T06:17:55.679Z,14.58
2019-02-21T06:20:21.996Z,14.73
2019-02-21T06:22:48.303Z,14.85
2019-02-21T06:25:14.617Z,14.92
2019-02-21T06:27:40.929Z,14.96
2019-02-21T06:30:07.236Z,14.94
2019-02-21T06:32:33.549Z,14.99
2019-02-21T06:35:02.404Z,15.16
2019-02-21T06:37:26.157Z,15.35
2019-02-21T06:39:52.495Z,15.52
2019-02-21T06:42:18.787Z,15.72
2019-02-21T06:44:45.104Z,15.90
2019-02-21T06:47:11.416Z,16.07
2019-02-21T06:49:37.725Z,16.24
2019-02-21T06:52:04.054Z,16.42
2019-02-21T06:54:30.353Z,16.59
2019-02-21T06:56:56.659Z,16.75
2019-02-21T06:59:23.735Z,16.93
2019-02-21T07:01:49.278Z,17.10
2019-02-21T07:04:15.587Z,17.28
2019-02-21T07:06:41.893Z,17.46
2019-02-21T07:09:08.199Z,17.63
2019-02-21T07:11:34.509Z,17.78
2019-02-21T07:14:00.829Z,17.93
2019-02-21T07:16:27.136Z,18.13
2019-02-21T07:18:53.450Z,18.47
2019-02-21T07:21:19.761Z,18.66
2019-02-21T07:23:46.067Z,18.72
2019-02-21T07:26:12.368Z,18.77
2019-02-21T07:28:40.878Z,19.03
2019-02-21T07:31:05.009Z,19.23
2019-02-21T07:33:31.338Z,19.46
2019-02-21T07:35:57.643Z,19.69
2019-02-21T07:38:23.970Z,19.84
2019-02-21T07:40:50.269Z,20.08
2019-02-21T07:43:16.593Z,20.32
2019-02-21T07:45:42.904Z,20.29
2019-02-21T07:48:09.209Z,20.21
2019-02-21T07:50:35.521Z,20.30
2019-02-21T07:53:02.830Z,20.34
2019-02-21T07:55:28.280Z,20.17
2019-02-21T07:57:54.585Z,19.96
2019-02-21T08:00:20.897Z,19.70
2019-02-21T08:02:47.227Z,19.43
2019-02-21T08:05:13.537Z,19.23
2019-02-21T08:07:39.842Z,19.05
2019-02-21T08:10:06.159Z,19.10
2019-02-21T08:12:32.505Z,19.30
2019-02-21T08:14:58.823Z,19.48
2019-02-21T08:17:27.767Z,19.91
2019-02-21T08:19:51.620Z,20.41
2019-02-21T08:22:18.043Z,20.87
2019-02-21T08:24:44.367Z,21.29
2019-02-21T08:27:10.679Z,21.64
2019-02-21T08:29:36.990Z,21.97
2019-02-21T08:32:03.310Z,22.28
2019-02-21T08:34:29.679Z,22.57
2019-02-21T08:36:55.992Z,22.84
2019-02-21T08:39:22.339Z,23.08
2019-02-21T08:41:48.651Z,23.32
2019-02-21T08:44:14.965Z,23.54
2019-02-21T08:46:41.275Z,23.74
2019-02-21T08:49:07.584Z,23.94
2019-02-21T08:51:33.897Z,24.12
2019-02-21T08:54:00.210Z,24.32
2019-02-21T08:56:26.524Z,24.40
2019-02-21T08:58:52.866Z,24.59
2019-02-21T09:01:19.255Z,24.79
2019-02-21T09:03:45.481Z,25.00
2019-02-21T09:06:13.000Z,25.19
2019-02-21T09:08:38.100Z,25.35
2019-02-21T09:11:04.454Z,25.52
2019-02-21T09:13:30.761Z,25.68
2019-02-21T09:15:57.069Z,25.89
2019-02-21T09:18:23.383Z,26.09
2019-02-21T09:20:49.754Z,25.95
2019-02-21T09:23:16.030Z,25.65
2019-02-21T09:25:42.327Z,25.41
2019-02-21T09:28:08.642Z,25.00
2019-02-21T09:30:34.954Z,24.67
2019-02-21T09:33:01.263Z,24.66
2019-02-21T09:35:27.626Z,24.96
2019-02-21T09:37:53.939Z,25.36
2019-02-21T09:40:20.248Z,25.76
2019-02-21T09:42:46.587Z,26.12
2019-02-21T09:45:14.827Z,26.25
2019-02-21T09:47:39.200Z,26.33
2019-02-21T09:50:05.505Z,26.21
2019-02-21T09:52:31.842Z,24.52
2019-02-21T09:54:58.149Z,23.58
2019-02-21T09:57:24.477Z,22.85
2019-02-21T09:59:50.786Z,22.06
2019-02-21T10:02:17.113Z,21.84
2019-02-21T10:04:43.416Z,21.72
2019-02-21T10:07:09.737Z,21.43
2019-02-21T10:09:36.136Z,21.30
2019-02-21T10:12:03.300Z,21.18
2019-02-21T10:14:28.656Z,21.28
2019-02-21T10:16:54.970Z,21.59
2019-02-21T10:19:21.277Z,21.72
2019-02-21T10:21:47.603Z,21.49
2019-02-21T10:24:13.907Z,20.98
2019-02-21T10:26:40.219Z,20.95
2019-02-21T10:29:06.523Z,21.26
2019-02-21T10:31:32.847Z,21.38
2019-02-21T10:33:59.223Z,21.58
2019-02-21T10:36:25.459Z,21.68
2019-02-21T10:38:51.767Z,21.78
2019-02-21T10:41:18.079Z,21.73
2019-02-21T10:43:44.398Z,21.92
2019-02-21T10:46:10.709Z,22.17
2019-02-21T10:48:37.019Z,22.53
2019-02-21T10:51:03.332Z,22.54
2019-02-21T10:53:29.643Z,22.59
2019-02-21T10:55:55.944Z,22.56
2019-02-21T10:58:22.259Z,22.76
2019-02-21T11:00:48.574Z,22.91
2019-02-21T11:03:14.880Z,22.90
2019-02-21T11:05:41.187Z,23.09
2019-02-21T11:08:07.497Z,22.86
2019-02-21T11:10:33.804Z,22.78
2019-02-21T11:13:00.115Z,22.73
2019-02-21T11:15:26.427Z,22.61
2019-02-21T11:17:52.743Z,22.07
2019-02-21T11:20:19.059Z,21.70
2019-02-21T11:22:45.370Z,21.73
2019-02-21T11:25:11.677Z,21.88
2019-02-21T11:27:37.993Z,22.20
2019-02-21T11:30:04.300Z,22.31
2019-02-21T11:32:30.624Z,22.27
2019-02-21T11:35:05.763Z,22.44
2019-02-21T11:37:23.257Z,22.61
2019-02-21T11:39:49.568Z,22.62
2019-02-21T11:42:15.872Z,22.69
2019-02-21T11:44:42.192Z,22.70
2019-02-21T11:47:08.508Z,22.58
2019-02-21T11:49:34.825Z,22.61
2019-02-21T11:52:09.786Z,22.57
2019-02-21T11:54:27.541Z,22.59
2019-02-21T11:56:53.757Z,22.58
2019-02-21T11:59:20.122Z,22.37
2019-02-21T12:01:46.371Z,22.30
2019-02-21T12:04:12.685Z,22.41
2019-02-21T12:06:38.999Z,22.49
2019-02-21T12:09:05.310Z,22.49
2019-02-21T12:11:31.609Z,22.37
2019-02-21T12:13:57.921Z,22.33
2019-02-21T12:16:24.228Z,22.31
2019-02-21T12:18:50.551Z,22.34
2019-02-21T12:21:16.856Z,22.26
2019-02-21T12:23:43.164Z,22.23
2019-02-21T12:26:09.474Z,22.25
2019-02-21T12:28:35.785Z,22.08
2019-02-21T12:31:02.187Z,22.13
2019-02-21T12:33:28.411Z,22.14
2019-02-21T12:35:54.712Z,22.12
2019-02-21T12:38:21.047Z,21.98
2019-02-21T12:40:47.354Z,21.96
2019-02-21T12:43:13.665Z,21.94
2019-02-21T12:45:39.979Z,21.97
2019-02-21T12:48:06.285Z,21.92
2019-02-21T12:50:43.649Z,21.82
2019-02-21T12:52:58.899Z,21.73
2019-02-21T12:55:29.245Z,21.70
2019-02-21T12:57:51.517Z,21.80
2019-02-21T13:00:17.827Z,21.89
2019-02-21T13:02:44.139Z,21.92
2019-02-21T13:05:10.450Z,21.96
2019-02-21T13:07:36.767Z,21.92
2019-02-21T13:10:03.081Z,21.72
2019-02-21T13:12:29.404Z,21.61
2019-02-21T13:14:55.714Z,21.44
2019-02-21T13:17:22.022Z,21.32
2019-02-21T13:19:48.341Z,21.30
2019-02-21T13:22:14.648Z,21.26
2019-02-21T13:24:40.956Z,21.20
2019-02-21T13:27:07.269Z,21.11
2019-02-21T13:29:33.578Z,21.15
2019-02-21T13:31:59.888Z,21.15
2019-02-21T13:34:26.216Z,21.04
2019-02-21T13:36:52.512Z,20.92
2019-02-21T13:39:18.828Z,20.76
2019-02-21T13:41:45.132Z,20.78
2019-02-21T13:44:11.445Z,20.63
2019-02-21T13:46:40.863Z,20.51
2019-02-21T13:49:04.055Z,20.50
2019-02-21T13:51:30.365Z,20.41
2019-02-21T13:53:56.689Z,20.40
2019-02-21T13:56:22.998Z,20.40
2019-02-21T13:58:49.323Z,20.33
2019-02-21T14:01:15.621Z,20.19
2019-02-21T14:03:41.936Z,20.05
2019-02-21T14:06:08.254Z,19.96
2019-02-21T14:08:34.563Z,19.83
2019-02-21T14:11:00.878Z,19.78
2019-02-21T14:13:27.190Z,19.69
2019-02-21T14:15:53.492Z,19.57
2019-02-21T14:18:19.805Z,19.41
2019-02-21T14:20:46.121Z,19.36
2019-02-21T14:23:12.427Z,19.25
2019-02-21T14:25:41.089Z,19.11
2019-02-21T14:28:05.040Z,19.00
2019-02-21T14:30:31.353Z,18.88
2019-02-21T14:32:57.996Z,18.77
2019-02-21T14:35:24.300Z,18.75
2019-02-21T14:37:50.609Z,18.70
2019-02-21T14:40:16.921Z,18.67
2019-02-21T14:42:43.224Z,18.62
2019-02-21T14:45:12.177Z,18.43
2019-02-21T14:47:35.845Z,18.29
2019-02-21T14:50:04.565Z,18.13
2019-02-21T14:52:28.463Z,18.09
2019-02-21T14:54:54.772Z,18.02
2019-02-21T14:57:21.082Z,17.97
2019-02-21T14:59:47.393Z,17.97
2019-02-21T15:02:13.697Z,18.67
2019-02-21T15:04:40.008Z,19.17
2019-02-21T15:07:06.684Z,19.34
2019-02-21T15:09:32.650Z,19.41
2019-02-21T15:11:58.957Z,19.41
2019-02-21T15:14:25.261Z,19.38
2019-02-21T15:16:51.574Z,19.37
2019-02-21T15:19:17.881Z,19.35
2019-02-21T15:21:44.209Z,19.31
2019-02-21T15:24:12.993Z,19.29
2019-02-21T15:26:36.837Z,19.25
2019-02-21T15:29:03.154Z,19.22
2019-02-21T15:31:29.551Z,19.17
2019-02-21T15:33:55.856Z,19.14
2019-02-21T15:36:22.166Z,19.11
2019-02-21T15:38:48.476Z,19.07
2019-02-21T15:41:14.785Z,19.06
2019-02-21T15:43:41.094Z,19.02
2019-02-21T15:46:07.578Z,18.99
2019-02-21T15:48:33.718Z,19.12
2019-02-21T15:51:00.023Z,19.34
2019-02-21T15:53:26.328Z,19.28
2019-02-21T15:55:52.643Z,19.14
2019-02-21T15:58:18.948Z,19.01
2019-02-21T16:00:45.259Z,18.93
2019-02-21T16:03:11.565Z,18.84
2019-02-21T16:05:37.881Z,18.77
2019-02-21T16:08:04.190Z,18.72
2019-02-21T16:10:30.524Z,18.67
2019-02-21T16:12:57.115Z,18.62
2019-02-21T16:15:23.172Z,18.58
2019-02-21T16:17:49.477Z,18.53
2019-02-21T16:20:15.800Z,18.48
2019-02-21T16:22:42.086Z,18.44
2019-02-21T16:25:08.395Z,18.41
2019-02-21T16:27:34.701Z,18.36
2019-02-21T16:30:01.008Z,18.33
2019-02-21T16:32:27.319Z,18.26
2019-02-21T16:34:53.662Z,18.25
2019-02-21T16:37:19.954Z,18.19
2019-02-21T16:39:46.260Z,18.16
2019-02-21T16:42:12.572Z,18.22
2019-02-21T16:44:38.885Z,18.42
2019-02-21T16:47:05.818Z,18.39
2019-02-21T16:49:31.499Z,18.32
2019-02-21T16:51:57.809Z,18.22
2019-02-21T16:54:24.112Z,18.15
2019-02-21T16:56:50.416Z,18.09
2019-02-21T16:59:16.724Z,18.03
2019-02-21T17:01:43.045Z,17.98
2019-02-21T17:04:09.356Z,17.93
2019-02-21T17:06:35.666Z,17.89
2019-02-21T17:09:01.971Z,17.85
2019-02-21T17:11:28.290Z,17.79
2019-02-21T17:13:54.592Z,17.76
2019-02-21T17:16:20.903Z,17.74
2019-02-21T17:18:47.210Z,17.71
2019-02-21T17:21:13.513Z,17.65
2019-02-21T17:23:39.827Z,17.62
2019-02-21T17:26:06.130Z,17.57
2019-02-21T17:28:32.430Z,17.57
2019-02-21T17:30:58.734Z,17.51
2019-02-21T17:33:25.052Z,17.44
2019-02-21T17:35:51.356Z,17.45
2019-02-21T17:38:17.665Z,17.43
2019-02-21T17:40:43.972Z,17.38
2019-02-21T17:43:10.285Z,17.35
2019-02-21T17:45:36.594Z,17.32
2019-02-21T17:48:02.905Z,17.28
2019-02-21T17:50:29.218Z,17.26
2019-02-21T17:52:55.546Z,17.23
2019-02-21T17:55:21.847Z,17.19
2019-02-21T17:57:48.160Z,17.10
2019-02-21T18:00:17.051Z,17.13
2019-02-21T18:02:40.790Z,17.09
2019-02-21T18:05:07.079Z,17.07
2019-02-21T18:07:36.413Z,17.04
2019-02-21T18:09:59.689Z,17.01
2019-02-21T18:12:25.994Z,16.99
2019-02-21T18:14:52.300Z,17.03
2019-02-21T18:17:18.606Z,17.01
2019-02-21T18:19:44.910Z,16.98
2019-02-21T18:22:11.258Z,16.92
2019-02-21T18:24:37.570Z,16.89
2019-02-21T18:27:03.902Z,16.84
2019-02-21T18:29:30.212Z,16.80
2019-02-21T18:31:56.516Z,16.79
2019-02-21T18:34:22.815Z,16.75
2019-02-21T18:36:49.119Z,16.73
2019-02-21T18:39:15.443Z,16.72
2019-02-21T18:41:41.748Z,16.70
2019-02-21T18:44:08.089Z,16.66
2019-02-21T18:46:34.397Z,16.64
2019-02-21T18:49:00.700Z,16.62
2019-02-21T18:51:27.333Z,16.60
2019-02-21T18:53:53.646Z,16.58
2019-02-21T18:56:19.955Z,16.54
2019-02-21T18:58:46.260Z,16.50
2019-02-21T19:01:12.571Z,16.49
2019-02-21T19:03:38.882Z,16.48
2019-02-21T19:06:05.227Z,16.47
2019-02-21T19:08:31.537Z,16.44
2019-02-21T19:10:57.843Z,16.41
2019-02-21T19:13:24.152Z,16.36
2019-02-21T19:15:50.456Z,16.31
2019-02-21T19:18:16.777Z,16.28
2019-02-21T19:20:43.083Z,16.26
2019-02-21T19:23:09.396Z,16.24
2019-02-21T19:25:35.738Z,16.21
2019-02-21T19:28:02.050Z,16.17
2019-02-21T19:30:28.441Z,16.17
2019-02-21T19:32:54.679Z,16.15
2019-02-21T19:35:20.984Z,16.13
2019-02-21T19:37:47.290Z,16.11
2019-02-21T19:40:13.614Z,16.09
2019-02-21T19:42:39.968Z,16.08
2019-02-21T19:45:06.279Z,16.05
2019-02-21T19:47:32.584Z,16.01
2019-02-21T19:49:58.889Z,15.99
2019-02-21T19:52:25.191Z,16.08
2019-02-21T19:54:51.509Z,16.07
2019-02-21T19:57:17.852Z,16.02
2019-02-21T19:59:44.284Z,15.97
2019-02-21T20:02:10.630Z,15.93
2019-02-21T20:04:36.939Z,15.91
2019-02-21T20:07:03.249Z,15.87
2019-02-21T20:09:29.558Z,15.86
2019-02-21T20:11:55.871Z,15.82
2019-02-21T20:14:22.188Z,15.79
2019-02-21T20:16:48.539Z,15.76
2019-02-21T20:19:14.847Z,15.74
2019-02-21T20:21:41.152Z,15.69
2019-02-21T20:24:07.455Z,15.66
2019-02-21T20:26:33.771Z,15.62
2019-02-21T20:29:00.080Z,15.62
2019-02-21T20:31:26.384Z,15.60
2019-02-21T20:33:52.692Z,15.55
2019-02-21T20:36:18.995Z,15.57
2019-02-21T20:38:45.298Z,15.54
2019-02-21T20:41:11.615Z,15.48
2019-02-21T20:43:37.925Z,15.50
2019-02-21T20:46:04.232Z,15.48
2019-02-21T20:48:30.725Z,15.43
2019-02-21T20:50:57.426Z,15.41
2019-02-21T20:53:23.174Z,15.39
2019-02-21T20:55:49.483Z,15.37
2019-02-21T20:58:15.788Z,15.35
2019-02-21T21:00:42.118Z,15.30
2019-02-21T21:03:08.421Z,15.31
2019-02-21T21:05:34.728Z,15.24
2019-02-21T21:08:01.036Z,15.24
2019-02-21T21:10:27.345Z,15.21
2019-02-21T21:12:53.656Z,15.22
2019-02-21T21:15:19.960Z,15.22
2019-02-21T21:17:46.273Z,15.19
2019-02-21T21:20:16.462Z,15.16
2019-02-21T21:22:38.884Z,15.12
2019-02-21T21:25:05.189Z,15.08
2019-02-21T21:27:31.495Z,15.00
2019-02-21T21:29:57.800Z,15.02
2019-02-21T21:32:24.111Z,15.03
2019-02-21T21:34:50.423Z,15.00
2019-02-21T21:37:16.734Z,14.99
2019-02-21T21:39:43.039Z,14.98
2019-02-21T21:42:09.356Z,14.96
2019-02-21T21:44:35.660Z,14.95
2019-02-21T21:47:01.964Z,14.93
2019-02-21T21:49:28.277Z,14.90
2019-02-21T21:51:54.579Z,14.87
2019-02-21T21:54:20.886Z,14.85
2019-02-21T21:56:47.192Z,14.83
2019-02-21T21:59:13.499Z,14.80
2019-02-21T22:01:39.817Z,14.79
2019-02-21T22:04:06.121Z,14.79
2019-02-21T22:06:32.429Z,14.76
2019-02-21T22:09:04.689Z,14.73
2019-02-21T22:11:25.075Z,14.69
2019-02-21T22:13:51.395Z,14.68
2019-02-21T22:16:17.734Z,14.64
2019-02-21T22:18:44.053Z,14.61
2019-02-21T22:21:10.386Z,14.56
2019-02-21T22:23:36.745Z,14.55
2019-02-21T22:26:03.040Z,14.54
2019-02-21T22:28:29.372Z,14.51
2019-02-21T22:30:57.944Z,14.48
2019-02-21T22:33:22.026Z,14.45
2019-02-21T22:35:48.352Z,14.43
2019-02-21T22:38:14.695Z,14.40
2019-02-21T22:40:41.013Z,14.35
2019-02-21T22:43:07.335Z,14.34
2019-02-21T22:45:33.665Z,14.31
2019-02-21T22:47:59.986Z,14.28
2019-02-21T22:50:26.944Z,14.23
2019-02-21T22:52:52.640Z,14.20
2019-02-21T22:55:18.969Z,14.16
2019-02-21T22:57:45.291Z,14.13
2019-02-21T23:00:11.615Z,14.10
2019-02-21T23:02:37.944Z,14.09
2019-02-21T23:05:04.277Z,14.09
2019-02-21T23:07:30.600Z,14.07
2019-02-21T23:09:56.917Z,14.05
2019-02-21T23:12:23.238Z,14.02
2019-02-21T23:14:49.563Z,14.00
2019-02-21T23:17:15.887Z,13.96
2019-02-21T23:19:42.195Z,13.93
2019-02-21T23:22:08.499Z,13.91
2019-02-21T23:24:34.818Z,13.93
2019-02-21T23:27:01.130Z,13.90
2019-02-21T23:29:27.436Z,13.87
2019-02-21T23:31:53.745Z,13.84
2019-02-21T23:34:20.072Z,13.82
2019-02-21T23:36:46.383Z,13.77
2019-02-21T23:39:12.691Z,13.75
2019-02-21T23:41:38.998Z,13.73
2019-02-21T23:44:05.312Z,13.71
2019-02-21T23:46:31.623Z,13.66
2019-02-21T23:48:57.928Z,13.65
2019-02-21T23:51:24.273Z,13.62
2019-02-21T23:53:50.584Z,13.59
2019-02-21T23:56:16.892Z,13.58
2019-02-21T23:58:43.206Z,13.54
